sensor_id;sensor_type;location;lat;lon;timestamp;temperature;humidity
16408;DHT22;8313;49.894;8.084;2022-10-24T00:01:33;15.00;99.90
16408;DHT22;8313;49.894;8.084;2022-10-24T00:03:59;15.00;99.90
16408;DHT22;8313;49.894;8.084;2022-10-24T00:06:24;15.00;99.90
16408;DHT22;8313;49.894;8.084;2022-10-24T00:08:50;15.00;99.90
16408;DHT22;8313;49.894;8.084;2022-10-24T00:11:22;14.90;99.90
16408;DHT22;8313;49.894;8.084;2022-10-24T00:13:48;14.90;99.90
16408;DHT22;8313;49.894;8.084;2022-10-24T00:16:15;14.90;99.90
16408;DHT22;8313;49.894;8.084;2022-10-24T00:18:41;14.90;99.90
16408;DHT22;8313;49.894;8.084;2022-10-24T00:21:07;14.90;99.90
16408;DHT22;8313;49.894;8.084;2022-10-24T00:23:33;14.90;99.90
16408;DHT22;8313;49.894;8.084;2022-10-24T00:25:59;14.90;99.90
16408;DHT22;8313;49.894;8.084;2022-10-24T00:28:27;14.90;99.90
16408;DHT22;8313;49.894;8.084;2022-10-24T00:30:53;14.90;99.90
16408;DHT22;8313;49.894;8.084;2022-10-24T00:33:19;14.90;99.90
16408;DHT22;8313;49.894;8.084;2022-10-24T00:35:45;14.80;99.90
16408;DHT22;8313;49.894;8.084;2022-10-24T00:38:11;14.80;99.90
16408;DHT22;8313;49.894;8.084;2022-10-24T00:40:37;14.80;99.90
16408;DHT22;8313;49.894;8.084;2022-10-24T00:43:02;14.60;99.90
16408;DHT22;8313;49.894;8.084;2022-10-24T00:45:53;14.60;99.90
16408;DHT22;8313;49.894;8.084;2022-10-24T00:48:38;14.60;99.90
16408;DHT22;8313;49.894;8.084;2022-10-24T00:51:30;14.60;99.90
16408;DHT22;8313;49.894;8.084;2022-10-24T00:54:03;14.60;99.90
16408;DHT22;8313;49.894;8.084;2022-10-24T00:56:41;14.60;99.90
16408;DHT22;8313;49.894;8.084;2022-10-24T00:59:10;14.50;99.90
16408;DHT22;8313;49.894;8.084;2022-10-24T01:01:37;14.50;99.90
16408;DHT22;8313;49.894;8.084;2022-10-24T01:04:03;14.50;99.90
16408;DHT22;8313;49.894;8.084;2022-10-24T01:15:38;14.40;99.90
16408;DHT22;8313;49.894;8.084;2022-10-24T01:17:31;14.40;99.90
16408;DHT22;8313;49.894;8.084;2022-10-24T01:28:22;14.40;99.90
16408;DHT22;8313;49.894;8.084;2022-10-24T01:30:56;14.40;99.90
16408;DHT22;8313;49.894;8.084;2022-10-24T01:33:34;14.30;99.90
16408;DHT22;8313;49.894;8.084;2022-10-24T01:36:09;14.30;99.90
16408;DHT22;8313;49.894;8.084;2022-10-24T01:39:07;14.20;99.90
16408;DHT22;8313;49.894;8.084;2022-10-24T01:41:36;14.20;99.90
16408;DHT22;8313;49.894;8.084;2022-10-24T01:44:23;14.30;99.90
16408;DHT22;8313;49.894;8.084;2022-10-24T01:47:16;14.20;99.90
16408;DHT22;8313;49.894;8.084;2022-10-24T01:49:48;14.20;99.90
16408;DHT22;8313;49.894;8.084;2022-10-24T01:52:16;14.10;99.90
16408;DHT22;8313;49.894;8.084;2022-10-24T01:54:43;14.10;99.90
16408;DHT22;8313;49.894;8.084;2022-10-24T01:57:12;14.00;99.90
16408;DHT22;8313;49.894;8.084;2022-10-24T01:59:44;14.00;99.90
16408;DHT22;8313;49.894;8.084;2022-10-24T02:02:39;14.10;99.90
16408;DHT22;8313;49.894;8.084;2022-10-24T02:05:14;14.10;99.90
16408;DHT22;8313;49.894;8.084;2022-10-24T02:07:43;14.10;99.90
16408;DHT22;8313;49.894;8.084;2022-10-24T02:10:17;14.10;99.90
16408;DHT22;8313;49.894;8.084;2022-10-24T02:12:47;14.10;99.90
16408;DHT22;8313;49.894;8.084;2022-10-24T02:15:18;14.00;99.90
16408;DHT22;8313;49.894;8.084;2022-10-24T02:17:45;14.00;99.90
16408;DHT22;8313;49.894;8.084;2022-10-24T02:20:11;14.00;99.90
16408;DHT22;8313;49.894;8.084;2022-10-24T02:22:45;14.10;99.90
16408;DHT22;8313;49.894;8.084;2022-10-24T02:25:18;14.00;99.90
16408;DHT22;8313;49.894;8.084;2022-10-24T02:27:51;13.90;99.90
16408;DHT22;8313;49.894;8.084;2022-10-24T02:30:20;13.90;99.90
16408;DHT22;8313;49.894;8.084;2022-10-24T02:32:50;14.00;99.90
16408;DHT22;8313;49.894;8.084;2022-10-24T02:35:19;14.00;99.90
16408;DHT22;8313;49.894;8.084;2022-10-24T02:37:49;13.90;99.90
16408;DHT22;8313;49.894;8.084;2022-10-24T02:40:17;13.90;99.90
16408;DHT22;8313;49.894;8.084;2022-10-24T02:42:46;13.90;99.90
16408;DHT22;8313;49.894;8.084;2022-10-24T02:45:14;13.90;99.90
16408;DHT22;8313;49.894;8.084;2022-10-24T02:47:42;13.90;99.90
16408;DHT22;8313;49.894;8.084;2022-10-24T02:50:09;13.90;99.90
16408;DHT22;8313;49.894;8.084;2022-10-24T02:52:40;13.80;99.90
16408;DHT22;8313;49.894;8.084;2022-10-24T02:55:06;13.80;99.90
16408;DHT22;8313;49.894;8.084;2022-10-24T02:57:32;13.80;99.90
16408;DHT22;8313;49.894;8.084;2022-10-24T02:59:57;13.80;99.90
16408;DHT22;8313;49.894;8.084;2022-10-24T03:02:24;13.80;99.90
16408;DHT22;8313;49.894;8.084;2022-10-24T03:04:49;13.70;99.90
16408;DHT22;8313;49.894;8.084;2022-10-24T03:07:15;13.70;99.90
16408;DHT22;8313;49.894;8.084;2022-10-24T03:09:41;13.70;99.90
16408;DHT22;8313;49.894;8.084;2022-10-24T03:12:07;13.70;99.90
16408;DHT22;8313;49.894;8.084;2022-10-24T03:14:33;13.70;99.90
16408;DHT22;8313;49.894;8.084;2022-10-24T03:16:59;13.70;99.90
16408;DHT22;8313;49.894;8.084;2022-10-24T03:19:24;13.70;99.90
16408;DHT22;8313;49.894;8.084;2022-10-24T03:21:50;13.70;99.90
16408;DHT22;8313;49.894;8.084;2022-10-24T03:24:16;13.70;99.90
16408;DHT22;8313;49.894;8.084;2022-10-24T03:26:42;13.70;99.90
16408;DHT22;8313;49.894;8.084;2022-10-24T03:29:09;13.70;99.90
16408;DHT22;8313;49.894;8.084;2022-10-24T03:31:35;13.70;99.90
16408;DHT22;8313;49.894;8.084;2022-10-24T03:34:00;13.80;99.90
16408;DHT22;8313;49.894;8.084;2022-10-24T03:36:26;13.80;99.90
16408;DHT22;8313;49.894;8.084;2022-10-24T03:38:52;13.80;99.90
16408;DHT22;8313;49.894;8.084;2022-10-24T03:41:17;13.80;99.90
16408;DHT22;8313;49.894;8.084;2022-10-24T03:43:43;13.80;99.90
16408;DHT22;8313;49.894;8.084;2022-10-24T03:46:09;13.80;99.90
16408;DHT22;8313;49.894;8.084;2022-10-24T03:48:35;13.80;99.90
16408;DHT22;8313;49.894;8.084;2022-10-24T03:51:01;13.80;99.90
16408;DHT22;8313;49.894;8.084;2022-10-24T03:53:27;13.80;99.90
16408;DHT22;8313;49.894;8.084;2022-10-24T03:55:52;13.80;99.90
16408;DHT22;8313;49.894;8.084;2022-10-24T03:58:18;13.80;99.90
16408;DHT22;8313;49.894;8.084;2022-10-24T04:00:43;13.80;99.90
16408;DHT22;8313;49.894;8.084;2022-10-24T04:03:09;13.80;99.90
16408;DHT22;8313;49.894;8.084;2022-10-24T04:05:35;13.80;99.90
16408;DHT22;8313;49.894;8.084;2022-10-24T04:08:01;13.80;99.90
16408;DHT22;8313;49.894;8.084;2022-10-24T04:10:27;13.80;99.90
16408;DHT22;8313;49.894;8.084;2022-10-24T04:12:54;13.80;99.90
16408;DHT22;8313;49.894;8.084;2022-10-24T04:15:20;13.80;99.90
16408;DHT22;8313;49.894;8.084;2022-10-24T04:17:45;13.80;99.90
16408;DHT22;8313;49.894;8.084;2022-10-24T04:20:11;13.80;99.90
16408;DHT22;8313;49.894;8.084;2022-10-24T04:22:37;13.80;99.90
16408;DHT22;8313;49.894;8.084;2022-10-24T04:25:03;13.80;99.90
16408;DHT22;8313;49.894;8.084;2022-10-24T04:27:29;13.80;99.90
16408;DHT22;8313;49.894;8.084;2022-10-24T04:29:55;13.80;99.90
16408;DHT22;8313;49.894;8.084;2022-10-24T04:32:21;13.80;99.90
16408;DHT22;8313;49.894;8.084;2022-10-24T04:34:46;13.80;99.90
16408;DHT22;8313;49.894;8.084;2022-10-24T04:37:12;13.80;99.90
16408;DHT22;8313;49.894;8.084;2022-10-24T04:39:38;13.80;99.90
16408;DHT22;8313;49.894;8.084;2022-10-24T04:42:03;13.80;99.90
16408;DHT22;8313;49.894;8.084;2022-10-24T04:44:29;13.80;99.90
16408;DHT22;8313;49.894;8.084;2022-10-24T04:46:55;13.80;99.90
16408;DHT22;8313;49.894;8.084;2022-10-24T04:49:20;13.80;99.90
16408;DHT22;8313;49.894;8.084;2022-10-24T04:51:46;13.80;99.90
16408;DHT22;8313;49.894;8.084;2022-10-24T04:54:12;13.90;99.90
16408;DHT22;8313;49.894;8.084;2022-10-24T04:56:37;13.90;99.90
16408;DHT22;8313;49.894;8.084;2022-10-24T04:59:03;13.80;99.90
16408;DHT22;8313;49.894;8.084;2022-10-24T05:01:29;13.80;99.90
16408;DHT22;8313;49.894;8.084;2022-10-24T05:03:54;13.80;99.90
16408;DHT22;8313;49.894;8.084;2022-10-24T05:06:20;13.90;99.90
16408;DHT22;8313;49.894;8.084;2022-10-24T05:08:46;13.80;99.90
16408;DHT22;8313;49.894;8.084;2022-10-24T05:11:11;13.90;99.90
16408;DHT22;8313;49.894;8.084;2022-10-24T05:13:38;13.90;99.90
16408;DHT22;8313;49.894;8.084;2022-10-24T05:16:04;13.90;99.90
16408;DHT22;8313;49.894;8.084;2022-10-24T05:18:31;13.80;99.90
16408;DHT22;8313;49.894;8.084;2022-10-24T05:20:58;13.90;99.90
16408;DHT22;8313;49.894;8.084;2022-10-24T05:23:24;13.90;99.90
16408;DHT22;8313;49.894;8.084;2022-10-24T05:25:49;13.90;99.90
16408;DHT22;8313;49.894;8.084;2022-10-24T05:28:15;13.90;99.90
16408;DHT22;8313;49.894;8.084;2022-10-24T05:30:44;13.90;99.90
16408;DHT22;8313;49.894;8.084;2022-10-24T05:33:10;13.90;99.90
16408;DHT22;8313;49.894;8.084;2022-10-24T05:35:36;13.90;99.90
16408;DHT22;8313;49.894;8.084;2022-10-24T05:38:02;13.90;99.90
16408;DHT22;8313;49.894;8.084;2022-10-24T05:40:28;13.90;99.90
16408;DHT22;8313;49.894;8.084;2022-10-24T05:42:54;13.90;99.90
16408;DHT22;8313;49.894;8.084;2022-10-24T05:45:20;13.90;99.90
16408;DHT22;8313;49.894;8.084;2022-10-24T05:47:46;13.90;99.90
16408;DHT22;8313;49.894;8.084;2022-10-24T05:50:12;13.90;99.90
16408;DHT22;8313;49.894;8.084;2022-10-24T05:52:38;13.90;99.90
16408;DHT22;8313;49.894;8.084;2022-10-24T05:55:06;13.90;99.90
16408;DHT22;8313;49.894;8.084;2022-10-24T05:57:32;13.90;99.90
16408;DHT22;8313;49.894;8.084;2022-10-24T05:59:58;13.90;99.90
16408;DHT22;8313;49.894;8.084;2022-10-24T06:02:24;13.90;99.90
16408;DHT22;8313;49.894;8.084;2022-10-24T06:04:50;13.90;99.90
16408;DHT22;8313;49.894;8.084;2022-10-24T06:07:17;13.80;99.90
16408;DHT22;8313;49.894;8.084;2022-10-24T06:09:43;13.90;99.90
16408;DHT22;8313;49.894;8.084;2022-10-24T06:12:10;13.90;99.90
16408;DHT22;8313;49.894;8.084;2022-10-24T06:14:38;13.80;99.90
16408;DHT22;8313;49.894;8.084;2022-10-24T06:17:05;13.90;99.90
16408;DHT22;8313;49.894;8.084;2022-10-24T06:19:34;13.90;99.90
16408;DHT22;8313;49.894;8.084;2022-10-24T06:22:01;13.90;99.90
16408;DHT22;8313;49.894;8.084;2022-10-24T06:24:27;13.90;99.90
16408;DHT22;8313;49.894;8.084;2022-10-24T06:26:52;13.90;99.90
16408;DHT22;8313;49.894;8.084;2022-10-24T06:29:18;13.90;99.90
16408;DHT22;8313;49.894;8.084;2022-10-24T06:31:44;13.90;99.90
16408;DHT22;8313;49.894;8.084;2022-10-24T06:34:09;13.90;99.90
16408;DHT22;8313;49.894;8.084;2022-10-24T06:36:35;13.90;99.90
16408;DHT22;8313;49.894;8.084;2022-10-24T06:39:02;13.90;99.90
16408;DHT22;8313;49.894;8.084;2022-10-24T06:41:27;13.90;99.90
16408;DHT22;8313;49.894;8.084;2022-10-24T06:43:53;13.90;99.90
16408;DHT22;8313;49.894;8.084;2022-10-24T06:46:21;13.90;99.90
16408;DHT22;8313;49.894;8.084;2022-10-24T06:48:54;14.00;99.90
16408;DHT22;8313;49.894;8.084;2022-10-24T06:51:21;14.00;99.90
16408;DHT22;8313;49.894;8.084;2022-10-24T06:53:46;14.00;99.90
16408;DHT22;8313;49.894;8.084;2022-10-24T06:56:12;14.00;99.90
16408;DHT22;8313;49.894;8.084;2022-10-24T06:58:39;14.00;99.90
16408;DHT22;8313;49.894;8.084;2022-10-24T07:01:34;14.00;99.90
16408;DHT22;8313;49.894;8.084;2022-10-24T07:04:00;14.10;99.90
16408;DHT22;8313;49.894;8.084;2022-10-24T07:06:27;14.10;99.90
16408;DHT22;8313;49.894;8.084;2022-10-24T07:08:56;14.10;99.90
16408;DHT22;8313;49.894;8.084;2022-10-24T07:11:22;14.10;99.90
16408;DHT22;8313;49.894;8.084;2022-10-24T07:13:48;14.10;99.90
16408;DHT22;8313;49.894;8.084;2022-10-24T07:16:14;14.20;99.90
16408;DHT22;8313;49.894;8.084;2022-10-24T07:18:41;14.20;99.90
16408;DHT22;8313;49.894;8.084;2022-10-24T07:21:16;14.20;99.90
16408;DHT22;8313;49.894;8.084;2022-10-24T07:23:46;14.20;99.90
16408;DHT22;8313;49.894;8.084;2022-10-24T07:26:14;14.20;99.90
16408;DHT22;8313;49.894;8.084;2022-10-24T07:28:41;14.20;99.90
16408;DHT22;8313;49.894;8.084;2022-10-24T07:31:09;14.30;99.90
16408;DHT22;8313;49.894;8.084;2022-10-24T07:33:38;14.30;99.90
16408;DHT22;8313;49.894;8.084;2022-10-24T07:36:04;14.30;99.90
16408;DHT22;8313;49.894;8.084;2022-10-24T07:38:30;14.30;99.90
16408;DHT22;8313;49.894;8.084;2022-10-24T07:40:55;14.30;99.90
16408;DHT22;8313;49.894;8.084;2022-10-24T07:43:21;14.40;99.90
16408;DHT22;8313;49.894;8.084;2022-10-24T07:45:47;14.40;99.90
16408;DHT22;8313;49.894;8.084;2022-10-24T07:48:14;14.40;99.90
16408;DHT22;8313;49.894;8.084;2022-10-24T07:50:45;14.50;99.90
16408;DHT22;8313;49.894;8.084;2022-10-24T07:53:11;14.50;99.90
16408;DHT22;8313;49.894;8.084;2022-10-24T07:55:42;14.50;99.90
16408;DHT22;8313;49.894;8.084;2022-10-24T07:58:09;14.50;99.90
16408;DHT22;8313;49.894;8.084;2022-10-24T08:00:35;14.50;99.90
16408;DHT22;8313;49.894;8.084;2022-10-24T08:03:01;14.60;99.90
16408;DHT22;8313;49.894;8.084;2022-10-24T08:05:27;14.60;99.90
16408;DHT22;8313;49.894;8.084;2022-10-24T08:07:53;14.60;99.90
16408;DHT22;8313;49.894;8.084;2022-10-24T08:10:18;14.60;99.90
16408;DHT22;8313;49.894;8.084;2022-10-24T08:12:44;14.60;99.90
16408;DHT22;8313;49.894;8.084;2022-10-24T08:15:10;14.70;99.90
16408;DHT22;8313;49.894;8.084;2022-10-24T08:17:36;14.70;99.90
16408;DHT22;8313;49.894;8.084;2022-10-24T08:20:06;14.70;99.90
16408;DHT22;8313;49.894;8.084;2022-10-24T08:22:35;14.70;99.90
16408;DHT22;8313;49.894;8.084;2022-10-24T08:25:01;14.80;99.90
16408;DHT22;8313;49.894;8.084;2022-10-24T08:27:30;14.80;99.90
16408;DHT22;8313;49.894;8.084;2022-10-24T08:29:56;14.90;99.90
16408;DHT22;8313;49.894;8.084;2022-10-24T08:32:22;14.90;99.90
16408;DHT22;8313;49.894;8.084;2022-10-24T08:34:47;15.00;99.90
16408;DHT22;8313;49.894;8.084;2022-10-24T08:37:13;15.00;99.90
16408;DHT22;8313;49.894;8.084;2022-10-24T08:39:39;15.10;99.90
16408;DHT22;8313;49.894;8.084;2022-10-24T08:42:07;15.20;99.90
16408;DHT22;8313;49.894;8.084;2022-10-24T08:44:38;15.30;99.90
16408;DHT22;8313;49.894;8.084;2022-10-24T08:52:57;15.50;99.90
16408;DHT22;8313;49.894;8.084;2022-10-24T08:55:28;15.60;99.90
16408;DHT22;8313;49.894;8.084;2022-10-24T08:57:59;15.60;99.90
16408;DHT22;8313;49.894;8.084;2022-10-24T09:00:32;15.70;99.90
16408;DHT22;8313;49.894;8.084;2022-10-24T09:03:31;15.70;99.90
16408;DHT22;8313;49.894;8.084;2022-10-24T09:06:03;15.90;99.90
16408;DHT22;8313;49.894;8.084;2022-10-24T09:08:52;15.90;99.90
16408;DHT22;8313;49.894;8.084;2022-10-24T09:16:43;16.20;99.90
16408;DHT22;8313;49.894;8.084;2022-10-24T09:19:16;16.30;99.90
16408;DHT22;8313;49.894;8.084;2022-10-24T09:21:43;16.40;99.90
16408;DHT22;8313;49.894;8.084;2022-10-24T09:24:22;16.50;99.90
16408;DHT22;8313;49.894;8.084;2022-10-24T09:26:49;16.60;99.90
16408;DHT22;8313;49.894;8.084;2022-10-24T09:29:14;16.70;99.90
16408;DHT22;8313;49.894;8.084;2022-10-24T09:31:40;16.80;99.90
16408;DHT22;8313;49.894;8.084;2022-10-24T09:34:06;16.80;99.90
16408;DHT22;8313;49.894;8.084;2022-10-24T09:36:32;17.00;99.90
16408;DHT22;8313;49.894;8.084;2022-10-24T09:39:36;17.10;99.90
16408;DHT22;8313;49.894;8.084;2022-10-24T09:42:02;17.20;99.90
16408;DHT22;8313;49.894;8.084;2022-10-24T09:47:01;17.20;99.90
16408;DHT22;8313;49.894;8.084;2022-10-24T09:49:37;17.20;99.90
16408;DHT22;8313;49.894;8.084;2022-10-24T09:52:24;17.20;99.90
16408;DHT22;8313;49.894;8.084;2022-10-24T09:57:43;17.30;99.90
16408;DHT22;8313;49.894;8.084;2022-10-24T10:03:18;17.60;99.90
16408;DHT22;8313;49.894;8.084;2022-10-24T10:05:49;17.70;99.90
16408;DHT22;8313;49.894;8.084;2022-10-24T10:08:19;17.80;99.90
16408;DHT22;8313;49.894;8.084;2022-10-24T10:13:23;18.00;99.90
16408;DHT22;8313;49.894;8.084;2022-10-24T10:15:51;18.00;99.90
16408;DHT22;8313;49.894;8.084;2022-10-24T10:18:34;18.10;99.90
16408;DHT22;8313;49.894;8.084;2022-10-24T10:21:16;18.20;99.90
16408;DHT22;8313;49.894;8.084;2022-10-24T10:23:53;18.30;99.90
16408;DHT22;8313;49.894;8.084;2022-10-24T10:28:56;18.50;99.90
16408;DHT22;8313;49.894;8.084;2022-10-24T10:31:41;18.50;99.90
16408;DHT22;8313;49.894;8.084;2022-10-24T10:34:21;18.60;99.90
16408;DHT22;8313;49.894;8.084;2022-10-24T10:42:13;18.90;99.90
16408;DHT22;8313;49.894;8.084;2022-10-24T10:49:55;19.00;99.90
16408;DHT22;8313;49.894;8.084;2022-10-24T10:52:37;19.10;99.90
16408;DHT22;8313;49.894;8.084;2022-10-24T10:55:21;19.10;99.90
16408;DHT22;8313;49.894;8.084;2022-10-24T11:06:27;19.20;99.90
16408;DHT22;8313;49.894;8.084;2022-10-24T11:08:56;19.30;99.90
16408;DHT22;8313;49.894;8.084;2022-10-24T11:11:36;19.20;99.90
16408;DHT22;8313;49.894;8.084;2022-10-24T11:16:49;19.30;99.90
16408;DHT22;8313;49.894;8.084;2022-10-24T11:19:49;19.50;99.90
16408;DHT22;8313;49.894;8.084;2022-10-24T11:22:23;19.70;99.90
16408;DHT22;8313;49.894;8.084;2022-10-24T11:25:04;19.70;99.90
16408;DHT22;8313;49.894;8.084;2022-10-24T11:27:39;19.70;99.90
16408;DHT22;8313;49.894;8.084;2022-10-24T11:30:28;19.70;99.90
16408;DHT22;8313;49.894;8.084;2022-10-24T11:32:58;19.60;99.90
16408;DHT22;8313;49.894;8.084;2022-10-24T11:35:31;19.60;99.90
16408;DHT22;8313;49.894;8.084;2022-10-24T11:38:18;19.70;99.90
16408;DHT22;8313;49.894;8.084;2022-10-24T11:40:47;19.70;99.90
16408;DHT22;8313;49.894;8.084;2022-10-24T11:43:25;19.70;99.90
16408;DHT22;8313;49.894;8.084;2022-10-24T11:45:59;19.80;99.90
16408;DHT22;8313;49.894;8.084;2022-10-24T11:48:52;19.70;99.90
16408;DHT22;8313;49.894;8.084;2022-10-24T11:51:36;19.80;99.90
16408;DHT22;8313;49.894;8.084;2022-10-24T11:57:22;19.90;99.90
16408;DHT22;8313;49.894;8.084;2022-10-24T11:59:51;20.00;99.90
16408;DHT22;8313;49.894;8.084;2022-10-24T12:02:37;20.10;99.90
16408;DHT22;8313;49.894;8.084;2022-10-24T12:11:30;20.10;99.90
16408;DHT22;8313;49.894;8.084;2022-10-24T12:14:33;20.20;99.90
16408;DHT22;8313;49.894;8.084;2022-10-24T12:19:40;20.20;99.90
16408;DHT22;8313;49.894;8.084;2022-10-24T12:22:24;20.20;99.90
16408;DHT22;8313;49.894;8.084;2022-10-24T12:25:16;20.30;99.90
16408;DHT22;8313;49.894;8.084;2022-10-24T12:27:43;20.30;99.90
16408;DHT22;8313;49.894;8.084;2022-10-24T12:38:13;20.30;99.90
16408;DHT22;8313;49.894;8.084;2022-10-24T12:43:30;20.50;99.90
16408;DHT22;8313;49.894;8.084;2022-10-24T12:45:58;20.50;99.90
16408;DHT22;8313;49.894;8.084;2022-10-24T12:48:31;20.60;99.90
16408;DHT22;8313;49.894;8.084;2022-10-24T12:50:59;20.50;99.90
16408;DHT22;8313;49.894;8.084;2022-10-24T12:53:38;20.50;99.90
16408;DHT22;8313;49.894;8.084;2022-10-24T12:56:10;20.60;99.90
16408;DHT22;8313;49.894;8.084;2022-10-24T12:58:39;20.70;99.90
16408;DHT22;8313;49.894;8.084;2022-10-24T13:01:26;20.60;99.90
16408;DHT22;8313;49.894;8.084;2022-10-24T13:20:37;20.80;99.90
16408;DHT22;8313;49.894;8.084;2022-10-24T13:23:24;20.70;99.90
16408;DHT22;8313;49.894;8.084;2022-10-24T13:25:56;20.70;99.90
16408;DHT22;8313;49.894;8.084;2022-10-24T13:38:32;20.60;99.90
16408;DHT22;8313;49.894;8.084;2022-10-24T13:40:58;20.50;99.90
16408;DHT22;8313;49.894;8.084;2022-10-24T13:43:24;20.50;99.90
16408;DHT22;8313;49.894;8.084;2022-10-24T13:46:04;20.50;99.90
16408;DHT22;8313;49.894;8.084;2022-10-24T13:48:34;20.50;99.90
16408;DHT22;8313;49.894;8.084;2022-10-24T13:53:45;20.40;99.90
16408;DHT22;8313;49.894;8.084;2022-10-24T13:56:15;20.40;99.90
16408;DHT22;8313;49.894;8.084;2022-10-24T13:58:43;20.40;99.90
16408;DHT22;8313;49.894;8.084;2022-10-24T14:01:26;20.40;99.90
16408;DHT22;8313;49.894;8.084;2022-10-24T14:03:54;20.40;99.90
16408;DHT22;8313;49.894;8.084;2022-10-24T14:06:28;20.40;99.90
16408;DHT22;8313;49.894;8.084;2022-10-24T14:08:59;20.40;99.90
16408;DHT22;8313;49.894;8.084;2022-10-24T14:11:26;20.40;99.90
16408;DHT22;8313;49.894;8.084;2022-10-24T14:13:56;20.40;99.90
16408;DHT22;8313;49.894;8.084;2022-10-24T14:16:31;20.40;99.90
16408;DHT22;8313;49.894;8.084;2022-10-24T14:19:25;20.30;99.90
16408;DHT22;8313;49.894;8.084;2022-10-24T14:21:51;20.20;99.90
16408;DHT22;8313;49.894;8.084;2022-10-24T14:24:19;20.20;99.90
16408;DHT22;8313;49.894;8.084;2022-10-24T14:26:46;20.10;99.90
16408;DHT22;8313;49.894;8.084;2022-10-24T14:32:02;20.00;99.90
16408;DHT22;8313;49.894;8.084;2022-10-24T14:34:29;20.00;99.90
16408;DHT22;8313;49.894;8.084;2022-10-24T14:37:01;20.00;99.90
16408;DHT22;8313;49.894;8.084;2022-10-24T14:39:27;20.00;99.90
16408;DHT22;8313;49.894;8.084;2022-10-24T14:41:54;20.00;99.90
16408;DHT22;8313;49.894;8.084;2022-10-24T14:44:20;20.00;99.90
16408;DHT22;8313;49.894;8.084;2022-10-24T14:47:04;20.00;99.90
16408;DHT22;8313;49.894;8.084;2022-10-24T14:49:34;20.00;99.90
16408;DHT22;8313;49.894;8.084;2022-10-24T14:52:18;20.00;99.90
16408;DHT22;8313;49.894;8.084;2022-10-24T14:55:17;19.90;99.90
16408;DHT22;8313;49.894;8.084;2022-10-24T14:57:47;19.90;99.90
16408;DHT22;8313;49.894;8.084;2022-10-24T15:00:20;19.90;99.90
16408;DHT22;8313;49.894;8.084;2022-10-24T15:02:47;19.90;99.90
16408;DHT22;8313;49.894;8.084;2022-10-24T15:07:58;19.70;99.90
16408;DHT22;8313;49.894;8.084;2022-10-24T15:10:36;19.70;99.90
16408;DHT22;8313;49.894;8.084;2022-10-24T15:13:11;19.70;99.90
16408;DHT22;8313;49.894;8.084;2022-10-24T15:20:49;19.60;99.90
16408;DHT22;8313;49.894;8.084;2022-10-24T15:23:26;19.50;99.90
16408;DHT22;8313;49.894;8.084;2022-10-24T15:26:00;19.50;99.90
16408;DHT22;8313;49.894;8.084;2022-10-24T15:28:35;19.40;99.90
16408;DHT22;8313;49.894;8.084;2022-10-24T15:31:01;19.40;99.90
16408;DHT22;8313;49.894;8.084;2022-10-24T15:33:27;19.40;99.90
16408;DHT22;8313;49.894;8.084;2022-10-24T15:35:53;19.30;99.90
16408;DHT22;8313;49.894;8.084;2022-10-24T15:38:18;19.30;99.90
16408;DHT22;8313;49.894;8.084;2022-10-24T15:40:47;19.20;99.90
16408;DHT22;8313;49.894;8.084;2022-10-24T15:43:15;19.20;99.90
16408;DHT22;8313;49.894;8.084;2022-10-24T15:45:41;19.10;99.90
16408;DHT22;8313;49.894;8.084;2022-10-24T15:48:07;19.10;99.90
16408;DHT22;8313;49.894;8.084;2022-10-24T15:50:33;19.10;99.90
16408;DHT22;8313;49.894;8.084;2022-10-24T15:53:02;19.10;99.90
16408;DHT22;8313;49.894;8.084;2022-10-24T15:55:29;19.00;99.90
16408;DHT22;8313;49.894;8.084;2022-10-24T15:57:56;19.00;99.90
16408;DHT22;8313;49.894;8.084;2022-10-24T16:00:24;19.00;99.90
16408;DHT22;8313;49.894;8.084;2022-10-24T16:02:53;19.00;99.90
16408;DHT22;8313;49.894;8.084;2022-10-24T16:05:23;19.00;99.90
16408;DHT22;8313;49.894;8.084;2022-10-24T16:07:50;18.90;99.90
16408;DHT22;8313;49.894;8.084;2022-10-24T16:10:20;18.90;99.90
16408;DHT22;8313;49.894;8.084;2022-10-24T16:12:48;18.80;99.90
16408;DHT22;8313;49.894;8.084;2022-10-24T16:15:28;18.80;99.90
16408;DHT22;8313;49.894;8.084;2022-10-24T16:17:56;18.80;99.90
16408;DHT22;8313;49.894;8.084;2022-10-24T16:20:23;18.70;99.90
16408;DHT22;8313;49.894;8.084;2022-10-24T16:22:50;18.70;99.90
16408;DHT22;8313;49.894;8.084;2022-10-24T16:25:21;18.60;99.90
16408;DHT22;8313;49.894;8.084;2022-10-24T16:27:48;18.50;99.90
16408;DHT22;8313;49.894;8.084;2022-10-24T16:30:16;18.50;99.90
16408;DHT22;8313;49.894;8.084;2022-10-24T16:32:42;18.40;99.90
16408;DHT22;8313;49.894;8.084;2022-10-24T16:35:09;18.40;99.90
16408;DHT22;8313;49.894;8.084;2022-10-24T16:37:35;18.30;99.90
16408;DHT22;8313;49.894;8.084;2022-10-24T16:40:01;18.30;99.90
16408;DHT22;8313;49.894;8.084;2022-10-24T16:42:27;18.30;99.90
16408;DHT22;8313;49.894;8.084;2022-10-24T16:44:53;18.20;99.90
16408;DHT22;8313;49.894;8.084;2022-10-24T16:47:19;18.20;99.90
16408;DHT22;8313;49.894;8.084;2022-10-24T16:49:44;18.20;99.90
16408;DHT22;8313;49.894;8.084;2022-10-24T16:52:11;18.10;99.90
16408;DHT22;8313;49.894;8.084;2022-10-24T16:54:38;18.10;99.90
16408;DHT22;8313;49.894;8.084;2022-10-24T16:57:04;18.00;99.90
16408;DHT22;8313;49.894;8.084;2022-10-24T16:59:29;18.00;99.90
16408;DHT22;8313;49.894;8.084;2022-10-24T17:01:55;18.00;99.90
16408;DHT22;8313;49.894;8.084;2022-10-24T17:04:21;18.00;99.90
16408;DHT22;8313;49.894;8.084;2022-10-24T17:06:47;17.90;99.90
16408;DHT22;8313;49.894;8.084;2022-10-24T17:09:13;17.80;99.90
16408;DHT22;8313;49.894;8.084;2022-10-24T17:11:38;17.80;99.90
16408;DHT22;8313;49.894;8.084;2022-10-24T17:14:05;17.80;99.90
16408;DHT22;8313;49.894;8.084;2022-10-24T17:16:32;17.70;99.90
16408;DHT22;8313;49.894;8.084;2022-10-24T17:18:57;17.70;99.90
16408;DHT22;8313;49.894;8.084;2022-10-24T17:21:23;17.60;99.90
16408;DHT22;8313;49.894;8.084;2022-10-24T17:23:52;17.60;99.90
16408;DHT22;8313;49.894;8.084;2022-10-24T17:26:18;17.60;99.90
16408;DHT22;8313;49.894;8.084;2022-10-24T17:28:44;17.50;99.90
16408;DHT22;8313;49.894;8.084;2022-10-24T17:31:11;17.50;99.90
16408;DHT22;8313;49.894;8.084;2022-10-24T17:33:37;17.40;99.90
16408;DHT22;8313;49.894;8.084;2022-10-24T17:36:06;17.40;99.90
16408;DHT22;8313;49.894;8.084;2022-10-24T17:38:42;17.30;99.90
16408;DHT22;8313;49.894;8.084;2022-10-24T17:43:42;17.20;99.90
16408;DHT22;8313;49.894;8.084;2022-10-24T17:46:11;17.20;99.90
16408;DHT22;8313;49.894;8.084;2022-10-24T17:48:37;17.20;99.90
16408;DHT22;8313;49.894;8.084;2022-10-24T17:51:03;17.10;99.90
16408;DHT22;8313;49.894;8.084;2022-10-24T17:53:29;17.10;99.90
16408;DHT22;8313;49.894;8.084;2022-10-24T17:55:54;17.10;99.90
16408;DHT22;8313;49.894;8.084;2022-10-24T17:58:20;17.00;99.90
16408;DHT22;8313;49.894;8.084;2022-10-24T18:00:46;17.00;99.90
16408;DHT22;8313;49.894;8.084;2022-10-24T18:03:12;17.00;99.90
16408;DHT22;8313;49.894;8.084;2022-10-24T18:05:38;17.00;99.90
16408;DHT22;8313;49.894;8.084;2022-10-24T18:08:05;16.90;99.90
16408;DHT22;8313;49.894;8.084;2022-10-24T18:10:31;16.90;99.90